Time;durP1;ratioP1;P1;durP2;ratioP2;P2;SDS_P1;SDS_P2;PMS_P1;PMS_P2;Temp;Humidity;BMP_temperature;BMP_pressure;BME280_temperature;BME280_humidity;BME280_pressure;Samples;Min_cycle;Max_cycle;Signal;HPM_P1;HPM_P2
2023/04/13 00:00:41;;;;;;;1.85;1.00;;;5.30;97.90;;;;;;5092018;28;20111;-67
2023/04/13 00:03:10;;;;;;;2.50;0.90;;;5.30;98.00;;;;;;5094614;28;20464;-67
2023/04/13 00:05:37;;;;;;;1.55;0.90;;;5.40;98.00;;;;;;5080254;27;20027;-67
2023/04/13 00:08:03;;;;;;;1.80;1.00;;;5.40;98.00;;;;;;5092979;28;20518;-67
2023/04/13 00:10:34;;;;;;;4.05;1.10;;;5.40;98.00;;;;;;5087968;28;20078;-67
2023/04/13 00:13:01;;;;;;;2.38;1.13;;;5.50;98.00;;;;;;5086800;28;20024;-67
2023/04/13 00:15:26;;;;;;;2.47;1.10;;;5.60;98.00;;;;;;5075811;28;20032;-67
2023/04/13 00:17:52;;;;;;;3.47;1.10;;;5.70;98.00;;;;;;5076058;28;20025;-67
2023/04/13 00:20:18;;;;;;;2.30;1.02;;;5.70;97.90;;;;;;5087209;28;20107;-68
2023/04/13 00:22:45;;;;;;;2.58;1.05;;;5.80;97.30;;;;;;5078619;28;20429;-67
2023/04/13 00:25:13;;;;;;;7.32;1.77;;;5.80;97.40;;;;;;5085039;28;20086;-67
2023/04/13 00:27:42;;;;;;;2.72;1.10;;;5.80;97.00;;;;;;5090204;28;20111;-67
2023/04/13 00:30:10;;;;;;;3.38;1.10;;;5.80;97.10;;;;;;5079069;28;20031;-67
2023/04/13 00:32:37;;;;;;;3.40;1.20;;;5.80;97.00;;;;;;5076991;28;20024;-66
2023/04/13 00:35:03;;;;;;;2.35;1.20;;;5.90;96.70;;;;;;5081152;28;20024;-68
2023/04/13 00:37:29;;;;;;;3.03;1.20;;;6.00;96.60;;;;;;5085852;28;20024;-67
2023/04/13 00:39:55;;;;;;;3.03;1.20;;;6.00;96.50;;;;;;5085502;28;20089;-67
2023/04/13 00:42:21;;;;;;;5.65;1.17;;;6.00;96.40;;;;;;5093432;28;20028;-67
2023/04/13 00:44:46;;;;;;;2.30;1.10;;;6.00;96.70;;;;;;5084720;28;20021;-67
2023/04/13 00:47:16;;;;;;;2.70;1.00;;;6.00;96.50;;;;;;5089458;28;20032;-67
2023/04/13 00:49:42;;;;;;;2.60;1.00;;;6.00;97.00;;;;;;5092260;28;20031;-67
2023/04/13 00:52:12;;;;;;;3.15;0.95;;;6.00;97.00;;;;;;5088117;28;20021;-67
2023/04/13 00:54:39;;;;;;;3.50;1.13;;;5.90;97.20;;;;;;5079929;28;20021;-67
2023/04/13 00:57:06;;;;;;;2.70;1.02;;;5.90;97.20;;;;;;5080336;28;20524;-67
2023/04/13 00:59:33;;;;;;;3.35;1.00;;;5.80;97.30;;;;;;5075930;28;20173;-68
2023/04/13 01:02:00;;;;;;;4.18;1.10;;;5.70;97.50;;;;;;5074435;28;20027;-67
2023/04/13 01:04:29;;;;;;;4.30;1.10;;;5.60;97.90;;;;;;5074774;28;20087;-67
2023/04/13 01:07:10;;;;;;;4.50;1.20;;;5.50;98.00;;;;;;5076290;28;20028;-67
2023/04/13 01:09:51;;;;;;;2.65;1.10;;;5.40;98.00;;;;;;5078245;28;20453;-67
2023/04/13 01:12:30;;;;;;;1.90;1.08;;;5.40;98.00;;;;;;5082657;28;20090;-67
2023/04/13 01:15:11;;;;;;;3.50;1.00;;;5.30;98.00;;;;;;5082194;28;20051;-67
2023/04/13 01:17:40;;;;;;;4.05;1.40;;;5.40;98.00;;;;;;5092783;28;20321;-67
2023/04/13 01:20:14;;;;;;;2.88;1.00;;;5.40;98.00;;;;;;5078326;28;20329;-67
2023/04/13 01:22:53;;;;;;;;;;;5.60;97.90;;;;;;5087920;28;20032;-67
2023/04/13 01:25:44;;;;;;;3.72;1.00;;;5.70;97.80;;;;;;5096961;28;19912;-67
2023/04/13 01:28:18;;;;;;;2.55;1.00;;;5.70;97.90;;;;;;5081408;28;20073;-66
2023/04/13 01:30:45;;;;;;;4.68;1.13;;;5.60;97.60;;;;;;5077891;28;20029;-67
2023/04/13 01:33:11;;;;;;;3.08;1.30;;;5.50;98.00;;;;;;5078092;28;20427;-66
2023/04/13 01:35:38;;;;;;;5.00;1.20;;;5.40;98.00;;;;;;5096209;28;20024;-67
2023/04/13 01:38:05;;;;;;;2.45;1.10;;;5.30;98.00;;;;;;5087272;28;20032;-67
2023/04/13 01:40:35;;;;;;;3.58;1.00;;;5.20;98.00;;;;;;5080290;28;20078;-67
2023/04/13 01:43:01;;;;;;;5.30;1.15;;;5.00;98.00;;;;;;5083088;28;20082;-67
2023/04/13 01:45:48;;;;;;;2.92;1.10;;;5.00;98.00;;;;;;5086572;28;20028;-67
2023/04/13 01:48:54;;;;;;;2.95;1.30;;;5.00;98.00;;;;;;5098514;28;20084;-67
2023/04/13 01:51:28;;;;;;;2.72;1.10;;;5.00;98.00;;;;;;5082570;28;20024;-67
2023/04/13 01:54:12;;;;;;;3.83;1.20;;;4.80;98.00;;;;;;5092291;28;20034;-67
2023/04/13 01:56:41;;;;;;;;;;;4.80;98.00;;;;;;5078590;28;20414;-66
2023/04/13 01:59:07;;;;;;;4.43;1.35;;;4.70;98.00;;;;;;5081311;28;20453;-66
2023/04/13 02:01:33;;;;;;;6.35;1.30;;;4.60;98.00;;;;;;5096453;28;20034;-66
2023/04/13 02:04:00;;;;;;;4.28;1.10;;;4.70;98.00;;;;;;5078731;28;20032;-66
2023/04/13 02:06:25;;;;;;;2.85;1.00;;;4.70;98.00;;;;;;5078735;28;20032;-66
2023/04/13 02:08:52;;;;;;;1.65;1.05;;;4.70;98.00;;;;;;5078843;28;20036;-66
2023/04/13 02:11:21;;;;;;;3.83;1.25;;;4.80;98.00;;;;;;5079084;28;20020;-66
2023/04/13 02:13:46;;;;;;;4.68;1.40;;;4.90;98.00;;;;;;5086597;28;20426;-66
2023/04/13 02:16:12;;;;;;;4.22;1.10;;;4.90;98.00;;;;;;5096224;28;20028;-66
2023/04/13 02:18:38;;;;;;;3.15;1.13;;;5.00;98.00;;;;;;5084471;28;20032;-65
2023/04/13 02:21:08;;;;;;;5.85;1.48;;;5.00;98.00;;;;;;5079128;28;20403;-65
2023/04/13 02:23:35;;;;;;;3.80;1.10;;;5.00;98.00;;;;;;5094687;28;20114;-65
2023/04/13 02:26:01;;;;;;;2.78;1.05;;;5.10;98.00;;;;;;5082511;28;20126;-65
2023/04/13 02:28:30;;;;;;;4.88;1.10;;;5.20;98.00;;;;;;5077510;28;20048;-65
2023/04/13 02:30:58;;;;;;;2.22;1.20;;;5.10;98.00;;;;;;5076587;28;20020;-67
2023/04/13 02:33:30;;;;;;;3.97;1.30;;;5.10;97.60;;;;;;5095319;28;20028;-67
2023/04/13 02:35:56;;;;;;;3.80;1.40;;;5.10;97.00;;;;;;5087934;28;20531;-67
2023/04/13 02:38:22;;;;;;;3.15;1.27;;;5.10;97.20;;;;;;5080291;28;20111;-67
2023/04/13 02:40:48;;;;;;;3.95;1.30;;;5.00;97.00;;;;;;5078165;28;20108;-67
2023/04/13 02:43:13;;;;;;;4.03;1.27;;;5.00;97.20;;;;;;5083939;28;20067;-66
2023/04/13 02:45:42;;;;;;;7.10;1.10;;;4.80;97.50;;;;;;5077921;28;20429;-67
2023/04/13 02:48:10;;;;;;;5.55;1.20;;;4.60;98.00;;;;;;5082124;28;20446;-66
2023/04/13 02:50:36;;;;;;;3.97;1.30;;;4.70;96.50;;;;;;5078161;28;20376;-66
2023/04/13 02:53:01;;;;;;;6.57;1.60;;;4.80;95.90;;;;;;5077154;28;20037;-66
2023/04/13 02:55:27;;;;;;;3.85;1.23;;;4.90;95.30;;;;;;5090640;28;20051;-66
2023/04/13 02:57:53;;;;;;;3.70;1.13;;;5.10;94.00;;;;;;5093681;28;20104;-66
2023/04/13 03:00:19;;;;;;;2.83;1.30;;;5.20;95.00;;;;;;5086664;28;20035;-65
2023/04/13 03:02:45;;;;;;;3.55;1.27;;;5.30;95.50;;;;;;5097907;28;20377;-66
2023/04/13 03:05:11;;;;;;;7.05;1.33;;;5.20;96.10;;;;;;5082649;28;20029;-66
2023/04/13 03:07:37;;;;;;;3.35;1.20;;;5.10;96.80;;;;;;5091877;28;20421;-66
2023/04/13 03:10:07;;;;;;;4.53;1.50;;;5.10;95.90;;;;;;5081517;28;20029;-66
2023/04/13 03:12:33;;;;;;;5.07;1.20;;;5.20;95.60;;;;;;5088234;28;20032;-66
2023/04/13 03:15:03;;;;;;;3.40;1.23;;;5.20;95.50;;;;;;5084816;28;20028;-66
2023/04/13 03:17:31;;;;;;;6.47;1.55;;;5.10;95.40;;;;;;5077498;28;20506;-65
2023/04/13 03:19:56;;;;;;;3.85;1.40;;;5.20;95.40;;;;;;5086175;28;20117;-64
2023/04/13 03:22:29;;;;;;;3.33;1.00;;;5.20;95.00;;;;;;5091896;28;20109;-64
2023/04/13 03:24:55;;;;;;;3.47;1.27;;;5.30;94.50;;;;;;5080917;28;20043;-66
2023/04/13 03:27:21;;;;;;;4.70;1.20;;;5.20;94.90;;;;;;5085770;28;20043;-66
2023/04/13 03:29:47;;;;;;;4.75;1.48;;;5.20;95.20;;;;;;5078904;28;20486;-66
2023/04/13 03:32:13;;;;;;;2.55;1.10;;;5.30;93.50;;;;;;5088151;28;20036;-66
2023/04/13 03:34:42;;;;;;;5.50;1.95;;;5.30;93.30;;;;;;5099015;28;20032;-65
2023/04/13 03:37:09;;;;;;;5.13;1.48;;;5.30;93.60;;;;;;5094466;28;20114;-65
2023/04/13 03:39:35;;;;;;;5.47;1.75;;;5.30;93.80;;;;;;5091896;28;20298;-65
2023/04/13 03:42:02;;;;;;;4.53;1.40;;;5.30;93.20;;;;;;5092460;28;20025;-66
2023/04/13 03:44:28;;;;;;;4.05;1.20;;;5.30;92.30;;;;;;5090840;28;20036;-65
2023/04/13 03:46:54;;;;;;;5.35;1.45;;;5.30;92.00;;;;;;5091256;28;20030;-66
2023/04/13 03:49:20;;;;;;;6.75;1.50;;;5.30;91.90;;;;;;5087219;28;20508;-66
2023/04/13 03:51:46;;;;;;;6.60;1.67;;;5.30;90.80;;;;;;5090669;28;20028;-66
2023/04/13 03:54:11;;;;;;;6.75;1.55;;;5.30;90.60;;;;;;5076540;28;20025;-66
2023/04/13 03:56:37;;;;;;;5.82;1.50;;;5.30;89.30;;;;;;5086577;28;20031;-66
2023/04/13 03:59:02;;;;;;;5.13;1.50;;;5.30;89.70;;;;;;5090589;28;20052;-66
2023/04/13 04:01:28;;;;;;;8.82;1.80;;;5.20;90.10;;;;;;5094122;28;20050;-65
2023/04/13 04:03:55;;;;;;;9.30;1.75;;;5.30;89.50;;;;;;5082538;28;20033;-66
2023/04/13 04:06:26;;;;;;;6.75;1.65;;;5.20;89.40;;;;;;5088586;28;20043;-65
2023/04/13 04:08:51;;;;;;;8.48;1.48;;;5.10;90.10;;;;;;5089972;28;20020;-66
2023/04/13 04:11:17;;;;;;;5.97;1.55;;;5.20;89.50;;;;;;5093861;28;20436;-65
2023/04/13 04:13:43;;;;;;;4.82;1.30;;;5.20;89.10;;;;;;5091453;28;20565;-66
2023/04/13 04:16:10;;;;;;;5.80;1.30;;;5.20;89.20;;;;;;5073625;28;20355;-66
2023/04/13 04:18:36;;;;;;;5.25;1.50;;;5.30;89.10;;;;;;5074297;28;20051;-66
2023/04/13 04:21:02;;;;;;;8.07;1.70;;;5.10;89.30;;;;;;5075235;28;20032;-66
2023/04/13 04:23:28;;;;;;;7.72;1.85;;;5.10;89.50;;;;;;5081817;28;20048;-66
2023/04/13 04:25:58;;;;;;;5.50;1.63;;;5.00;89.90;;;;;;5089148;28;20085;-66
2023/04/13 04:28:24;;;;;;;4.55;1.55;;;4.90;90.00;;;;;;5091025;28;20016;-65
2023/04/13 04:30:52;;;;;;;9.57;2.00;;;5.00;89.80;;;;;;5086243;28;20024;-66
2023/04/13 04:33:21;;;;;;;5.82;1.60;;;5.00;90.10;;;;;;5083566;28;20372;-66
2023/04/13 04:35:49;;;;;;;8.40;1.90;;;4.90;90.50;;;;;;5077335;28;20482;-66
2023/04/13 04:38:16;;;;;;;7.45;1.83;;;4.80;90.60;;;;;;5085999;28;20056;-66
2023/04/13 04:40:44;;;;;;;5.78;1.70;;;4.80;90.40;;;;;;5091389;28;20069;-65
2023/04/13 04:43:12;;;;;;;7.25;2.28;;;4.70;91.00;;;;;;5090082;28;20127;-65
2023/04/13 04:45:40;;;;;;;6.53;1.90;;;4.50;91.30;;;;;;5088892;28;20016;-66
2023/04/13 04:48:06;;;;;;;6.13;2.03;;;4.30;92.40;;;;;;5087650;28;20050;-66
2023/04/13 04:50:32;;;;;;;7.93;1.85;;;4.30;92.20;;;;;;5076901;28;20020;-66
2023/04/13 04:52:58;;;;;;;6.13;1.45;;;4.20;92.40;;;;;;5075800;28;20021;-66
2023/04/13 04:55:23;;;;;;;6.57;1.90;;;4.20;92.00;;;;;;5077741;28;20027;-66
2023/04/13 04:57:49;;;;;;;8.10;1.75;;;4.30;92.00;;;;;;5051509;28;1078444;-66
2023/04/13 05:00:15;;;;;;;7.38;1.67;;;4.30;91.70;;;;;;5080806;28;20032;-66
2023/04/13 05:02:41;;;;;;;4.95;1.58;;;4.50;90.80;;;;;;5078144;28;20074;-66
2023/04/13 05:05:08;;;;;;;5.53;1.48;;;4.60;90.10;;;;;;5078400;28;20029;-66
2023/04/13 05:07:33;;;;;;;5.13;1.40;;;4.60;89.90;;;;;;5077292;28;20036;-67
2023/04/13 05:09:59;;;;;;;11.05;1.75;;;4.70;89.80;;;;;;5092175;28;20069;-66
2023/04/13 05:12:27;;;;;;;4.72;1.25;;;4.70;89.70;;;;;;5087017;28;20075;-66
2023/04/13 05:14:52;;;;;;;7.03;1.80;;;4.70;89.50;;;;;;5085491;28;20031;-65
2023/04/13 05:17:18;;;;;;;6.43;1.40;;;4.80;89.10;;;;;;5083887;28;20322;-66
2023/04/13 05:19:44;;;;;;;7.32;2.10;;;4.70;89.20;;;;;;5093418;28;20063;-65
2023/04/13 05:22:11;;;;;;;4.85;1.60;;;4.80;89.00;;;;;;5086007;28;20028;-65
2023/04/13 05:24:37;;;;;;;7.10;1.67;;;4.90;89.00;;;;;;5078586;28;20440;-65
2023/04/13 05:27:10;;;;;;;6.63;1.58;;;5.00;88.70;;;;;;5081827;28;20024;-67
2023/04/13 05:29:36;;;;;;;5.85;1.40;;;5.10;88.20;;;;;;5084186;28;20363;-66
2023/04/13 05:32:02;;;;;;;6.90;1.60;;;5.10;87.90;;;;;;5094017;28;20028;-66
2023/04/13 05:34:28;;;;;;;7.70;1.58;;;5.10;88.90;;;;;;5077516;28;20027;-67
2023/04/13 05:36:54;;;;;;;4.93;1.55;;;5.10;88.20;;;;;;5075060;28;20037;-67
2023/04/13 05:39:20;;;;;;;6.85;1.50;;;5.10;87.50;;;;;;5083626;28;20033;-66
2023/04/13 05:41:46;;;;;;;3.50;1.20;;;5.20;87.20;;;;;;5077935;28;20032;-66
2023/04/13 05:44:12;;;;;;;6.20;1.80;;;5.20;87.30;;;;;;5080470;28;20027;-66
2023/04/13 05:46:38;;;;;;;10.65;3.15;;;5.20;87.20;;;;;;5087621;28;20021;-67
2023/04/13 05:49:03;;;;;;;4.75;1.50;;;5.20;87.80;;;;;;5079184;28;20025;-66
2023/04/13 05:51:30;;;;;;;5.07;1.67;;;5.20;87.60;;;;;;5092389;28;20099;-66
2023/04/13 05:53:56;;;;;;;5.60;1.83;;;5.20;87.30;;;;;;5094601;28;20443;-66
2023/04/13 05:56:22;;;;;;;4.15;1.30;;;5.30;88.00;;;;;;5077018;28;20063;-66
2023/04/13 05:58:48;;;;;;;6.10;1.55;;;5.30;87.80;;;;;;5096175;28;20101;-66
2023/04/13 06:01:15;;;;;;;6.47;1.70;;;5.30;89.00;;;;;;5092132;28;20032;-66
2023/04/13 06:03:42;;;;;;;5.30;1.30;;;5.30;88.50;;;;;;5093145;28;20363;-65
2023/04/13 06:06:07;;;;;;;5.63;1.40;;;5.40;88.50;;;;;;5085650;28;20032;-65
2023/04/13 06:08:33;;;;;;;6.38;1.40;;;5.50;88.20;;;;;;5093079;28;20028;-66
2023/04/13 06:10:59;;;;;;;7.30;1.52;;;5.50;87.20;;;;;;5096471;28;20026;-66
2023/04/13 06:13:30;;;;;;;7.68;1.77;;;5.50;87.60;;;;;;5084303;28;20084;-66
2023/04/13 06:15:56;;;;;;;5.80;1.45;;;5.50;87.90;;;;;;5079123;28;20039;-66
2023/04/13 06:18:25;;;;;;;5.80;1.73;;;5.50;88.20;;;;;;5081234;28;20028;-66
2023/04/13 06:20:51;;;;;;;4.80;1.75;;;5.60;87.50;;;;;;5087281;28;20162;-66
2023/04/13 06:23:16;;;;;;;4.95;1.67;;;5.50;87.40;;;;;;5088979;28;20062;-66
2023/04/13 06:25:43;;;;;;;5.65;1.67;;;5.50;88.00;;;;;;5088811;28;20031;-66
2023/04/13 06:28:09;;;;;;;5.43;1.40;;;5.50;88.10;;;;;;5079357;28;20025;-65
2023/04/13 06:30:36;;;;;;;8.43;1.65;;;5.40;88.50;;;;;;5083099;28;20031;-66
2023/04/13 06:33:04;;;;;;;8.27;2.00;;;5.40;88.90;;;;;;5077564;28;20739;-66
2023/04/13 06:35:30;;;;;;;7.47;1.70;;;5.40;89.50;;;;;;5082912;28;20049;-66
2023/04/13 06:38:00;;;;;;;7.25;1.90;;;5.40;89.30;;;;;;5094431;28;20124;-66
2023/04/13 06:40:30;;;;;;;8.65;1.83;;;5.50;89.50;;;;;;5093891;28;20055;-66
2023/04/13 06:42:57;;;;;;;6.43;1.80;;;5.40;89.20;;;;;;5091186;28;20340;-66
2023/04/13 06:45:22;;;;;;;9.15;2.65;;;5.40;89.70;;;;;;5079052;28;20031;-66
2023/04/13 06:47:48;;;;;;;7.85;2.00;;;5.30;91.40;;;;;;5085027;28;20412;-66
2023/04/13 06:50:14;;;;;;;18.20;3.38;;;5.10;92.80;;;;;;5068950;28;20020;-66
2023/04/13 06:52:47;;;;;;;6.82;1.60;;;4.90;93.10;;;;;;5068680;28;20475;-66
2023/04/13 06:55:13;;;;;;;7.30;1.92;;;5.00;92.90;;;;;;5064796;28;20028;-65
2023/04/13 06:57:39;;;;;;;7.22;1.50;;;5.20;92.30;;;;;;5065268;28;20093;-66
2023/04/13 07:00:06;;;;;;;7.00;1.60;;;5.40;92.20;;;;;;5068434;28;20032;-66
2023/04/13 07:02:32;;;;;;;10.57;2.70;;;5.40;92.10;;;;;;5079796;28;20028;-66
2023/04/13 07:04:58;;;;;;;7.57;1.65;;;5.50;91.00;;;;;;5064485;28;20471;-65
2023/04/13 07:07:26;;;;;;;7.40;1.67;;;5.60;91.30;;;;;;5073907;28;20032;-66
2023/04/13 07:09:52;;;;;;;8.27;1.90;;;5.70;90.40;;;;;;5086390;28;20047;-66
2023/04/13 07:12:18;;;;;;;7.68;1.95;;;5.80;89.70;;;;;;5084030;28;20056;-66
2023/04/13 07:14:45;;;;;;;7.47;1.80;;;5.90;90.10;;;;;;5083641;28;20027;-66
2023/04/13 07:17:11;;;;;;;9.02;2.42;;;6.00;89.60;;;;;;5080463;28;20020;-66
2023/04/13 07:19:37;;;;;;;11.05;1.88;;;6.10;89.70;;;;;;5065213;28;20452;-66
2023/04/13 07:22:03;;;;;;;6.15;1.73;;;6.20;88.70;;;;;;5070351;28;20043;-66
2023/04/13 07:24:29;;;;;;;10.55;1.60;;;6.10;89.10;;;;;;5088985;28;20013;-66
2023/04/13 07:26:57;;;;;;;10.70;1.77;;;6.00;89.70;;;;;;5077186;28;20563;-68
2023/04/13 07:29:26;;;;;;;10.48;2.20;;;6.00;89.40;;;;;;5073734;28;20033;-65
2023/04/13 07:31:57;;;;;;;9.93;1.75;;;5.90;89.50;;;;;;5090499;28;20150;-66
2023/04/13 07:34:22;;;;;;;8.40;2.25;;;5.90;89.90;;;;;;5080376;28;20024;-66
2023/04/13 07:36:48;;;;;;;10.73;1.80;;;6.10;89.30;;;;;;5081083;28;20020;-66
2023/04/13 07:39:13;;;;;;;5.22;1.98;;;6.20;88.90;;;;;;5084972;28;20016;-66
2023/04/13 07:41:39;;;;;;;8.95;2.08;;;6.20;88.10;;;;;;5083362;28;20044;-66
2023/04/13 07:44:07;;;;;;;10.35;2.08;;;6.20;88.30;;;;;;5075509;28;20099;-65
2023/04/13 07:46:33;;;;;;;8.30;1.85;;;6.30;88.50;;;;;;5077272;28;20047;-66
2023/04/13 07:48:59;;;;;;;5.03;1.92;;;6.20;88.30;;;;;;5077624;28;20353;-66
2023/04/13 07:51:25;;;;;;;10.13;1.90;;;6.20;88.70;;;;;;5091530;28;20078;-66
2023/04/13 07:53:51;;;;;;;6.15;1.63;;;6.20;88.40;;;;;;5084551;28;20016;-66
2023/04/13 07:56:17;;;;;;;8.70;1.98;;;6.10;88.90;;;;;;5083261;28;20302;-66
2023/04/13 07:58:43;;;;;;;10.20;2.13;;;6.20;88.70;;;;;;5076199;28;20102;-66
2023/04/13 08:01:09;;;;;;;9.68;1.98;;;6.20;89.00;;;;;;5076701;28;20024;-66
2023/04/13 08:03:35;;;;;;;10.95;2.15;;;6.30;89.50;;;;;;5088453;28;20067;-66
2023/04/13 08:06:01;;;;;;;11.32;2.13;;;6.30;88.60;;;;;;5094096;28;20028;-66
2023/04/13 08:08:26;;;;;;;19.38;2.85;;;6.20;89.00;;;;;;5089211;28;20038;-65
2023/04/13 08:10:54;;;;;;;15.90;3.63;;;6.30;89.00;;;;;;5087131;28;20056;-65
2023/04/13 08:13:20;;;;;;;12.98;2.20;;;6.30;88.70;;;;;;5089798;28;20020;-65
2023/04/13 08:15:49;;;;;;;7.07;2.38;;;6.30;88.70;;;;;;5075345;28;20024;-65
2023/04/13 08:18:14;;;;;;;7.90;2.00;;;6.40;88.90;;;;;;5085977;28;20036;-65
2023/04/13 08:20:40;;;;;;;11.95;2.17;;;6.50;88.90;;;;;;5081102;28;20039;-67
2023/04/13 08:23:05;;;;;;;12.70;2.80;;;6.60;87.90;;;;;;5076269;28;20039;-67
2023/04/13 08:25:33;;;;;;;12.88;2.70;;;6.70;88.30;;;;;;5076344;28;20134;-67
2023/04/13 08:27:58;;;;;;;7.90;1.95;;;6.90;88.00;;;;;;5075985;28;20029;-66
2023/04/13 08:30:24;;;;;;;13.05;2.50;;;6.90;87.40;;;;;;5075921;28;20485;-67
2023/04/13 08:32:50;;;;;;;10.35;2.35;;;6.80;88.00;;;;;;5082654;28;20421;-66
2023/04/13 08:35:16;;;;;;;10.82;2.78;;;6.90;87.90;;;;;;5085071;28;20317;-66
2023/04/13 08:37:41;;;;;;;11.43;2.33;;;7.30;88.20;;;;;;5090505;28;20024;-66
2023/04/13 08:40:10;;;;;;;16.65;7.35;;;7.50;86.30;;;;;;5094616;28;20036;-66
2023/04/13 08:42:37;;;;;;;8.32;2.05;;;7.50;87.00;;;;;;5093280;28;20093;-66
2023/04/13 08:45:07;;;;;;;9.60;1.85;;;7.60;85.80;;;;;;5078957;28;20031;-67
2023/04/13 08:47:36;;;;;;;6.55;1.75;;;7.40;85.50;;;;;;5087306;28;20119;-65
2023/04/13 08:50:02;;;;;;;7.70;2.03;;;7.00;86.30;;;;;;5088330;28;20070;-66
2023/04/13 08:52:28;;;;;;;8.75;2.40;;;6.80;86.80;;;;;;5081261;28;20029;-66
2023/04/13 08:54:57;;;;;;;5.00;1.60;;;6.80;87.60;;;;;;5077073;28;20020;-66
2023/04/13 08:57:22;;;;;;;9.60;2.55;;;6.70;87.20;;;;;;5085423;28;20024;-66
2023/04/13 08:59:51;;;;;;;9.60;1.77;;;6.60;87.10;;;;;;5080104;28;20070;-66
2023/04/13 09:02:19;;;;;;;9.63;1.92;;;6.60;87.60;;;;;;5078868;28;20055;-65
2023/04/13 09:04:49;;;;;;;10.88;4.28;;;6.60;87.10;;;;;;5079219;28;20119;-66
2023/04/13 09:07:26;;;;;;;10.48;2.47;;;6.70;87.40;;;;;;5075450;28;20029;-65
2023/04/13 09:09:58;;;;;;;12.93;2.90;;;6.60;88.20;;;;;;5078702;28;20028;-65
2023/04/13 09:12:27;;;;;;;9.80;2.35;;;6.60;89.60;;;;;;5077250;28;20028;-65
2023/04/13 09:14:53;;;;;;;11.80;2.30;;;6.80;89.80;;;;;;5079463;28;20024;-66
2023/04/13 09:17:26;;;;;;;11.50;2.38;;;6.90;89.70;;;;;;5076701;28;20050;-66
2023/04/13 09:19:53;;;;;;;11.75;2.28;;;7.00;88.70;;;;;;5084704;28;20037;-65
2023/04/13 09:22:20;;;;;;;11.50;2.30;;;7.00;88.50;;;;;;5089255;28;20068;-65
2023/04/13 09:24:47;;;;;;;9.75;3.17;;;7.00;89.00;;;;;;5074933;28;20409;-66
2023/04/13 09:27:20;;;;;;;9.57;3.15;;;7.40;88.60;;;;;;5077045;28;20040;-66
2023/04/13 09:29:51;;;;;;;8.60;2.60;;;7.90;86.30;;;;;;5091190;28;20425;-65
2023/04/13 09:32:21;;;;;;;12.23;2.38;;;8.30;85.50;;;;;;5076938;28;20318;-65
2023/04/13 09:34:57;;;;;;;7.72;2.10;;;8.60;84.20;;;;;;5088730;28;20370;-66
2023/04/13 09:37:41;;;;;;;9.30;2.42;;;9.00;83.00;;;;;;5096007;28;20028;-66
2023/04/13 09:40:09;;;;;;;10.02;2.30;;;9.50;81.30;;;;;;5093082;28;20405;-66
2023/04/13 09:42:35;;;;;;;11.75;5.47;;;9.70;79.90;;;;;;5097214;28;20024;-66
2023/04/13 09:45:01;;;;;;;11.88;4.05;;;9.80;81.70;;;;;;5088506;28;20368;-66
2023/04/13 09:47:48;;;;;;;13.52;5.80;;;9.90;80.20;;;;;;5086994;28;20028;-65
2023/04/13 09:50:21;;;;;;;8.15;2.50;;;9.50;80.90;;;;;;5078466;28;20024;-66
2023/04/13 09:53:09;;;;;;;9.18;2.75;;;9.70;80.20;;;;;;5089373;28;20035;-66
2023/04/13 09:55:36;;;;;;;11.50;2.25;;;10.80;78.80;;;;;;5091446;28;20074;-65
2023/04/13 09:58:18;;;;;;;8.65;3.13;;;10.70;76.40;;;;;;5079668;28;20041;-65
2023/04/13 10:00:45;;;;;;;6.35;2.20;;;10.70;76.40;;;;;;5077659;28;20036;-65
2023/04/13 10:03:15;;;;;;;9.60;2.83;;;10.40;75.90;;;;;;5078836;28;20409;-65
2023/04/13 10:05:42;;;;;;;9.15;2.60;;;9.90;76.50;;;;;;5078765;28;20059;-65
2023/04/13 10:08:08;;;;;;;7.78;2.10;;;9.40;78.10;;;;;;5080751;28;20409;-65
2023/04/13 10:10:36;;;;;;;11.15;4.18;;;9.30;79.10;;;;;;5097953;28;20024;-65
2023/04/13 10:13:24;;;;;;;10.13;2.30;;;9.20;78.60;;;;;;5098684;28;20052;-65
2023/04/13 10:16:28;;;;;;;8.60;2.30;;;8.60;82.30;;;;;;5085689;28;20029;-65
2023/04/13 10:19:03;;;;;;;10.55;4.00;;;8.30;85.40;;;;;;5082188;28;20115;-65
2023/04/13 10:21:34;;;;;;;9.63;2.78;;;8.90;85.50;;;;;;5078440;28;20472;-65
2023/04/13 10:24:01;;;;;;;10.32;2.72;;;9.70;81.10;;;;;;5090481;28;20059;-65
2023/04/13 10:26:32;;;;;;;7.63;2.13;;;9.70;79.80;;;;;;5098503;28;20077;-65
2023/04/13 10:28:59;;;;;;;8.90;2.22;;;9.20;80.10;;;;;;5097934;28;20298;-65
2023/04/13 10:31:45;;;;;;;9.55;2.45;;;8.90;81.40;;;;;;5098311;28;20050;-65
2023/04/13 10:34:26;;;;;;;10.50;2.05;;;9.10;82.10;;;;;;5098352;28;20024;-65
2023/04/13 10:36:57;;;;;;;6.20;1.63;;;10.00;80.10;;;;;;5098381;28;20024;-65
2023/04/13 10:39:40;;;;;;;6.95;1.73;;;10.50;78.40;;;;;;5095308;28;20429;-65
2023/04/13 10:42:08;;;;;;;9.38;1.80;;;11.30;76.30;;;;;;5093836;28;20118;-65
2023/04/13 10:44:46;;;;;;;8.30;2.28;;;10.80;74.80;;;;;;5076755;28;20086;-65
2023/04/13 10:47:13;;;;;;;9.32;1.80;;;10.60;75.70;;;;;;5091610;28;20107;-65
2023/04/13 10:49:40;;;;;;;7.07;1.75;;;10.10;75.00;;;;;;5076990;28;20481;-65
2023/04/13 10:52:07;;;;;;;10.18;2.30;;;9.50;76.10;;;;;;5077807;28;20082;-65
2023/04/13 10:54:34;;;;;;;7.97;2.20;;;9.20;78.40;;;;;;5077756;28;20020;-66
2023/04/13 10:57:02;;;;;;;8.40;2.58;;;9.20;78.30;;;;;;5079797;28;20107;-65
2023/04/13 10:59:44;;;;;;;7.88;2.33;;;9.00;78.70;;;;;;5076393;28;20083;-65
2023/04/13 11:02:12;;;;;;;7.93;1.88;;;9.00;78.80;;;;;;5077710;28;20023;-65
2023/04/13 11:04:40;;;;;;;9.13;2.53;;;9.00;79.20;;;;;;5077509;28;20047;-65
2023/04/13 11:07:07;;;;;;;11.25;2.58;;;9.00;78.50;;;;;;5077380;28;20025;-65
2023/04/13 11:09:33;;;;;;;6.07;1.98;;;9.00;78.80;;;;;;5077500;28;20111;-64
2023/04/13 11:11:59;;;;;;;10.60;3.08;;;9.00;79.60;;;;;;5083119;28;20073;-64
2023/04/13 11:14:27;;;;;;;8.18;2.53;;;9.20;78.90;;;;;;5096565;28;20077;-67
2023/04/13 11:16:53;;;;;;;7.35;2.03;;;9.40;79.00;;;;;;5078855;28;20033;-66
2023/04/13 11:19:18;;;;;;;10.20;2.33;;;9.30;78.20;;;;;;5077278;28;20021;-65
2023/04/13 11:21:44;;;;;;;11.13;2.88;;;9.00;78.90;;;;;;5077166;28;20024;-65
2023/04/13 11:24:10;;;;;;;10.70;2.53;;;8.70;80.60;;;;;;5077141;28;20021;-65
2023/04/13 11:26:37;;;;;;;9.43;2.10;;;8.40;81.80;;;;;;5078619;28;20034;-66
2023/04/13 11:29:03;;;;;;;8.10;1.88;;;8.60;83.60;;;;;;5083977;28;20032;-66
2023/04/13 11:31:36;;;;;;;6.05;2.00;;;8.80;82.30;;;;;;5095326;28;20040;-66
2023/04/13 11:34:04;;;;;;;8.15;2.20;;;9.20;81.90;;;;;;5097237;28;20016;-67
2023/04/13 11:36:31;;;;;;;9.10;1.95;;;9.50;80.70;;;;;;5079595;28;20034;-65
2023/04/13 11:38:58;;;;;;;8.02;1.90;;;9.70;80.10;;;;;;5077004;28;20021;-66
2023/04/13 11:41:26;;;;;;;7.93;2.42;;;9.40;79.80;;;;;;5077557;28;20028;-66
2023/04/13 11:43:52;;;;;;;14.57;5.45;;;9.30;81.60;;;;;;5076804;28;20029;-67
2023/04/13 11:46:23;;;;;;;11.65;2.97;;;9.60;79.90;;;;;;5075906;28;20373;-65
2023/04/13 11:48:51;;;;;;;12.40;2.30;;;9.70;79.70;;;;;;5076529;28;20047;-66
2023/04/13 11:51:18;;;;;;;9.60;2.40;;;9.60;78.80;;;;;;5076639;28;20039;-66
2023/04/13 11:53:44;;;;;;;11.68;2.25;;;9.50;79.40;;;;;;5076296;28;20013;-66
2023/04/13 11:56:10;;;;;;;8.68;2.15;;;9.50;79.70;;;;;;5091471;28;20384;-66
2023/04/13 11:58:38;;;;;;;9.73;2.17;;;9.40;79.20;;;;;;5078379;28;20072;-65
2023/04/13 12:01:07;;;;;;;8.50;1.60;;;9.40;79.10;;;;;;5084293;28;20028;-66
2023/04/13 12:03:34;;;;;;;8.63;2.13;;;9.60;78.90;;;;;;5096479;28;20586;-66
2023/04/13 12:06:00;;;;;;;8.73;1.98;;;9.70;79.10;;;;;;5095037;28;20077;-66
2023/04/13 12:08:27;;;;;;;6.78;1.98;;;10.00;78.20;;;;;;5095765;28;20028;-65
2023/04/13 12:10:57;;;;;;;8.93;2.30;;;10.40;77.80;;;;;;5076432;28;20025;-66
2023/04/13 12:13:22;;;;;;;8.73;2.05;;;10.90;76.90;;;;;;5076309;28;20321;-66
2023/04/13 12:15:48;;;;;;;7.20;2.42;;;11.20;75.10;;;;;;5075065;28;20020;-67
2023/04/13 12:18:15;;;;;;;6.55;2.38;;;11.50;73.80;;;;;;5076166;28;20107;-66
2023/04/13 12:20:43;;;;;;;6.93;2.22;;;11.90;72.40;;;;;;5076045;28;20150;-66
2023/04/13 12:23:18;;;;;;;9.75;1.98;;;12.00;72.60;;;;;;5076186;28;20028;-66
2023/04/13 12:25:55;;;;;;;8.38;2.10;;;12.00;72.10;;;;;;5086439;28;20119;-66
2023/04/13 12:28:21;;;;;;;10.38;2.00;;;12.30;71.30;;;;;;5083935;28;20028;-66
2023/04/13 12:30:47;;;;;;;9.80;2.33;;;12.20;71.70;;;;;;5095143;28;20028;-66
2023/04/13 12:33:12;;;;;;;9.52;2.17;;;12.10;71.50;;;;;;5096299;28;20035;-66
2023/04/13 12:35:38;;;;;;;10.45;1.85;;;12.20;71.50;;;;;;5096216;28;20028;-66
2023/04/13 12:38:04;;;;;;;6.85;2.00;;;12.40;70.60;;;;;;5094588;28;20099;-66
2023/04/13 12:40:29;;;;;;;6.80;1.58;;;12.80;70.00;;;;;;5095883;28;20020;-66
2023/04/13 12:42:55;;;;;;;7.00;1.83;;;12.40;69.90;;;;;;5096223;28;20020;-65
2023/04/13 12:45:21;;;;;;;7.53;2.15;;;12.60;69.70;;;;;;5094928;28;20024;-66
2023/04/13 12:47:46;;;;;;;6.80;2.10;;;12.70;70.00;;;;;;5096065;28;20020;-66
2023/04/13 12:50:12;;;;;;;10.95;2.20;;;12.00;71.10;;;;;;5081318;28;20090;-66
2023/04/13 12:52:41;;;;;;;7.57;2.42;;;11.40;72.60;;;;;;5075736;28;20063;-66
2023/04/13 12:55:07;;;;;;;7.88;2.38;;;11.00;73.90;;;;;;5081563;28;20043;-65
2023/04/13 12:57:36;;;;;;;8.15;2.90;;;10.40;75.30;;;;;;5094969;28;20429;-65
2023/04/13 13:00:07;;;;;;;10.52;3.08;;;9.80;79.00;;;;;;5094865;28;20043;-65